sensor_id;sensor_type;location;lat;lon;timestamp;P1;durP1;ratioP1;P2;durP2;ratioP2
51030;SDS011;37058;41.442;23.240;2022-10-16T00:01:24;6.87;;;4.30;;
51030;SDS011;37058;41.442;23.240;2022-10-16T00:06:21;6.37;;;3.67;;
51030;SDS011;37058;41.442;23.240;2022-10-16T00:08:48;7.63;;;5.00;;
51030;SDS011;37058;41.442;23.240;2022-10-16T00:11:19;9.93;;;5.33;;
51030;SDS011;37058;41.442;23.240;2022-10-16T00:13:55;9.40;;;4.70;;
51030;SDS011;37058;41.442;23.240;2022-10-16T00:16:25;5.23;;;3.63;;
51030;SDS011;37058;41.442;23.240;2022-10-16T00:18:51;8.00;;;4.47;;
51030;SDS011;37058;41.442;23.240;2022-10-16T00:21:19;8.30;;;4.93;;
51030;SDS011;37058;41.442;23.240;2022-10-16T00:23:53;9.13;;;3.87;;
51030;SDS011;37058;41.442;23.240;2022-10-16T00:26:21;6.50;;;4.47;;
51030;SDS011;37058;41.442;23.240;2022-10-16T00:28:48;6.73;;;4.47;;
51030;SDS011;37058;41.442;23.240;2022-10-16T00:31:16;8.27;;;4.80;;
51030;SDS011;37058;41.442;23.240;2022-10-16T00:33:44;7.73;;;4.13;;
51030;SDS011;37058;41.442;23.240;2022-10-16T00:36:11;7.23;;;3.83;;
51030;SDS011;37058;41.442;23.240;2022-10-16T00:38:40;5.97;;;4.47;;
51030;SDS011;37058;41.442;23.240;2022-10-16T00:41:07;7.23;;;4.90;;
51030;SDS011;37058;41.442;23.240;2022-10-16T00:46:22;6.53;;;4.37;;
51030;SDS011;37058;41.442;23.240;2022-10-16T00:49:05;7.23;;;4.97;;
51030;SDS011;37058;41.442;23.240;2022-10-16T00:51:52;6.50;;;4.23;;
51030;SDS011;37058;41.442;23.240;2022-10-16T00:54:20;6.27;;;3.90;;
51030;SDS011;37058;41.442;23.240;2022-10-16T00:56:50;6.70;;;4.67;;
51030;SDS011;37058;41.442;23.240;2022-10-16T00:59:19;10.77;;;4.43;;
51030;SDS011;37058;41.442;23.240;2022-10-16T01:01:56;6.07;;;3.83;;
51030;SDS011;37058;41.442;23.240;2022-10-16T01:04:23;6.93;;;4.47;;
51030;SDS011;37058;41.442;23.240;2022-10-16T01:09:45;6.63;;;4.67;;
51030;SDS011;37058;41.442;23.240;2022-10-16T01:18:02;5.27;;;3.90;;
51030;SDS011;37058;41.442;23.240;2022-10-16T01:20:58;5.23;;;3.40;;
51030;SDS011;37058;41.442;23.240;2022-10-16T01:23:44;6.30;;;4.20;;
51030;SDS011;37058;41.442;23.240;2022-10-16T01:27:08;4.97;;;4.03;;
51030;SDS011;37058;41.442;23.240;2022-10-16T01:29:45;5.83;;;3.83;;
51030;SDS011;37058;41.442;23.240;2022-10-16T01:35:36;6.60;;;3.80;;
51030;SDS011;37058;41.442;23.240;2022-10-16T01:38:18;5.90;;;3.77;;
51030;SDS011;37058;41.442;23.240;2022-10-16T01:41:00;4.50;;;3.13;;
51030;SDS011;37058;41.442;23.240;2022-10-16T01:43:39;3.67;;;2.60;;
51030;SDS011;37058;41.442;23.240;2022-10-16T01:46:14;4.33;;;2.80;;
51030;SDS011;37058;41.442;23.240;2022-10-16T01:51:11;4.17;;;2.83;;
51030;SDS011;37058;41.442;23.240;2022-10-16T01:53:40;4.30;;;3.03;;
51030;SDS011;37058;41.442;23.240;2022-10-16T01:56:11;5.03;;;3.17;;
51030;SDS011;37058;41.442;23.240;2022-10-16T01:58:47;5.57;;;3.33;;
51030;SDS011;37058;41.442;23.240;2022-10-16T02:01:42;9.27;;;4.10;;
51030;SDS011;37058;41.442;23.240;2022-10-16T02:04:17;5.80;;;3.27;;
51030;SDS011;37058;41.442;23.240;2022-10-16T02:06:49;4.30;;;2.70;;
51030;SDS011;37058;41.442;23.240;2022-10-16T02:09:15;6.93;;;3.97;;
51030;SDS011;37058;41.442;23.240;2022-10-16T02:11:42;6.60;;;3.83;;
51030;SDS011;37058;41.442;23.240;2022-10-16T02:14:09;6.27;;;3.53;;
51030;SDS011;37058;41.442;23.240;2022-10-16T02:16:36;6.77;;;4.10;;
51030;SDS011;37058;41.442;23.240;2022-10-16T02:19:13;5.83;;;3.67;;
51030;SDS011;37058;41.442;23.240;2022-10-16T02:24:35;6.07;;;4.13;;
51030;SDS011;37058;41.442;23.240;2022-10-16T02:27:13;6.63;;;3.75;;
51030;SDS011;37058;41.442;23.240;2022-10-16T02:30:05;5.17;;;3.33;;
51030;SDS011;37058;41.442;23.240;2022-10-16T02:32:56;3.90;;;2.70;;
51030;SDS011;37058;41.442;23.240;2022-10-16T02:35:25;4.85;;;3.28;;
51030;SDS011;37058;41.442;23.240;2022-10-16T02:37:52;5.37;;;2.93;;
51030;SDS011;37058;41.442;23.240;2022-10-16T02:40:20;6.03;;;3.57;;
51030;SDS011;37058;41.442;23.240;2022-10-16T02:42:49;8.83;;;4.47;;
51030;SDS011;37058;41.442;23.240;2022-10-16T02:45:18;5.73;;;3.77;;
51030;SDS011;37058;41.442;23.240;2022-10-16T02:47:44;11.23;;;5.33;;
51030;SDS011;37058;41.442;23.240;2022-10-16T02:50:10;10.13;;;6.00;;
51030;SDS011;37058;41.442;23.240;2022-10-16T02:52:36;10.33;;;6.47;;
51030;SDS011;37058;41.442;23.240;2022-10-16T02:55:02;11.67;;;5.77;;
51030;SDS011;37058;41.442;23.240;2022-10-16T02:57:28;6.73;;;4.40;;
51030;SDS011;37058;41.442;23.240;2022-10-16T02:59:54;7.60;;;4.67;;
51030;SDS011;37058;41.442;23.240;2022-10-16T03:02:19;7.10;;;4.50;;
51030;SDS011;37058;41.442;23.240;2022-10-16T03:04:45;6.20;;;3.80;;
51030;SDS011;37058;41.442;23.240;2022-10-16T03:07:11;6.23;;;3.90;;
51030;SDS011;37058;41.442;23.240;2022-10-16T03:09:37;7.83;;;4.67;;
51030;SDS011;37058;41.442;23.240;2022-10-16T03:12:03;5.67;;;4.03;;
51030;SDS011;37058;41.442;23.240;2022-10-16T03:14:29;8.50;;;4.17;;
51030;SDS011;37058;41.442;23.240;2022-10-16T03:16:55;6.53;;;4.07;;
51030;SDS011;37058;41.442;23.240;2022-10-16T03:19:21;7.37;;;3.47;;
51030;SDS011;37058;41.442;23.240;2022-10-16T03:21:47;7.53;;;3.70;;
51030;SDS011;37058;41.442;23.240;2022-10-16T03:24:13;10.07;;;4.07;;
51030;SDS011;37058;41.442;23.240;2022-10-16T03:26:39;6.40;;;3.67;;
51030;SDS011;37058;41.442;23.240;2022-10-16T03:29:04;6.03;;;4.00;;
51030;SDS011;37058;41.442;23.240;2022-10-16T03:31:31;7.47;;;4.13;;
51030;SDS011;37058;41.442;23.240;2022-10-16T03:33:57;8.47;;;3.90;;
51030;SDS011;37058;41.442;23.240;2022-10-16T03:36:23;5.47;;;3.60;;
51030;SDS011;37058;41.442;23.240;2022-10-16T03:38:49;8.37;;;5.27;;
51030;SDS011;37058;41.442;23.240;2022-10-16T03:41:15;6.27;;;3.53;;
51030;SDS011;37058;41.442;23.240;2022-10-16T03:43:41;6.90;;;4.03;;
51030;SDS011;37058;41.442;23.240;2022-10-16T03:46:07;6.70;;;4.43;;
51030;SDS011;37058;41.442;23.240;2022-10-16T03:48:33;6.27;;;4.50;;
51030;SDS011;37058;41.442;23.240;2022-10-16T03:50:59;5.07;;;3.37;;
51030;SDS011;37058;41.442;23.240;2022-10-16T03:53:25;7.27;;;3.33;;
51030;SDS011;37058;41.442;23.240;2022-10-16T03:55:51;5.47;;;3.07;;
51030;SDS011;37058;41.442;23.240;2022-10-16T03:58:16;5.77;;;3.90;;
51030;SDS011;37058;41.442;23.240;2022-10-16T04:00:42;4.37;;;2.57;;
51030;SDS011;37058;41.442;23.240;2022-10-16T04:03:10;7.83;;;3.37;;
51030;SDS011;37058;41.442;23.240;2022-10-16T04:05:36;4.40;;;3.10;;
51030;SDS011;37058;41.442;23.240;2022-10-16T04:08:02;5.87;;;3.47;;
51030;SDS011;37058;41.442;23.240;2022-10-16T04:10:29;13.93;;;4.00;;
51030;SDS011;37058;41.442;23.240;2022-10-16T04:12:55;4.23;;;3.10;;
51030;SDS011;37058;41.442;23.240;2022-10-16T04:15:21;4.73;;;2.60;;
51030;SDS011;37058;41.442;23.240;2022-10-16T04:17:48;5.27;;;3.60;;
51030;SDS011;37058;41.442;23.240;2022-10-16T04:20:14;7.27;;;3.97;;
51030;SDS011;37058;41.442;23.240;2022-10-16T04:22:40;5.00;;;3.00;;
51030;SDS011;37058;41.442;23.240;2022-10-16T04:25:06;4.60;;;2.90;;
51030;SDS011;37058;41.442;23.240;2022-10-16T04:27:32;3.80;;;2.40;;
51030;SDS011;37058;41.442;23.240;2022-10-16T04:29:59;4.50;;;2.90;;
51030;SDS011;37058;41.442;23.240;2022-10-16T04:32:26;4.67;;;3.50;;
51030;SDS011;37058;41.442;23.240;2022-10-16T04:34:52;4.07;;;2.70;;
51030;SDS011;37058;41.442;23.240;2022-10-16T04:37:18;4.87;;;3.03;;
51030;SDS011;37058;41.442;23.240;2022-10-16T04:39:48;6.00;;;3.45;;
51030;SDS011;37058;41.442;23.240;2022-10-16T04:42:14;4.60;;;2.97;;
51030;SDS011;37058;41.442;23.240;2022-10-16T04:44:40;7.13;;;3.97;;
51030;SDS011;37058;41.442;23.240;2022-10-16T04:47:06;5.23;;;3.10;;
51030;SDS011;37058;41.442;23.240;2022-10-16T04:49:32;4.87;;;3.10;;
51030;SDS011;37058;41.442;23.240;2022-10-16T04:51:58;6.03;;;4.20;;
51030;SDS011;37058;41.442;23.240;2022-10-16T04:54:24;5.27;;;3.30;;
51030;SDS011;37058;41.442;23.240;2022-10-16T04:56:50;36.20;;;13.30;;
51030;SDS011;37058;41.442;23.240;2022-10-16T04:59:17;51.83;;;19.40;;
51030;SDS011;37058;41.442;23.240;2022-10-16T05:01:44;40.67;;;16.03;;
51030;SDS011;37058;41.442;23.240;2022-10-16T05:04:10;42.17;;;18.47;;
51030;SDS011;37058;41.442;23.240;2022-10-16T05:06:37;53.93;;;19.37;;
51030;SDS011;37058;41.442;23.240;2022-10-16T05:09:04;23.30;;;12.53;;
51030;SDS011;37058;41.442;23.240;2022-10-16T05:11:31;16.40;;;9.03;;
51030;SDS011;37058;41.442;23.240;2022-10-16T05:13:57;11.00;;;6.43;;
51030;SDS011;37058;41.442;23.240;2022-10-16T05:16:23;14.37;;;6.10;;
51030;SDS011;37058;41.442;23.240;2022-10-16T05:18:48;12.63;;;6.43;;
51030;SDS011;37058;41.442;23.240;2022-10-16T05:21:16;11.60;;;5.13;;
51030;SDS011;37058;41.442;23.240;2022-10-16T05:23:41;10.17;;;5.13;;
51030;SDS011;37058;41.442;23.240;2022-10-16T05:26:07;11.80;;;4.80;;
51030;SDS011;37058;41.442;23.240;2022-10-16T05:28:33;11.70;;;5.87;;
51030;SDS011;37058;41.442;23.240;2022-10-16T05:30:59;9.00;;;4.40;;
51030;SDS011;37058;41.442;23.240;2022-10-16T05:33:34;9.93;;;5.47;;
51030;SDS011;37058;41.442;23.240;2022-10-16T05:36:01;8.50;;;4.13;;
51030;SDS011;37058;41.442;23.240;2022-10-16T05:38:34;6.50;;;3.87;;
51030;SDS011;37058;41.442;23.240;2022-10-16T05:41:01;6.70;;;3.50;;
51030;SDS011;37058;41.442;23.240;2022-10-16T05:43:28;6.27;;;3.93;;
51030;SDS011;37058;41.442;23.240;2022-10-16T05:46:00;5.37;;;3.40;;
51030;SDS011;37058;41.442;23.240;2022-10-16T05:48:29;5.87;;;3.30;;
51030;SDS011;37058;41.442;23.240;2022-10-16T05:50:59;4.67;;;2.73;;
51030;SDS011;37058;41.442;23.240;2022-10-16T05:53:35;5.13;;;3.13;;
51030;SDS011;37058;41.442;23.240;2022-10-16T05:56:03;3.80;;;2.77;;
51030;SDS011;37058;41.442;23.240;2022-10-16T05:58:31;3.23;;;2.00;;
51030;SDS011;37058;41.442;23.240;2022-10-16T06:01:01;5.13;;;2.58;;
51030;SDS011;37058;41.442;23.240;2022-10-16T06:03:38;4.87;;;2.70;;
51030;SDS011;37058;41.442;23.240;2022-10-16T06:06:11;4.00;;;2.33;;
51030;SDS011;37058;41.442;23.240;2022-10-16T06:08:40;4.80;;;2.97;;
51030;SDS011;37058;41.442;23.240;2022-10-16T06:11:09;3.97;;;2.60;;
51030;SDS011;37058;41.442;23.240;2022-10-16T06:13:38;3.73;;;2.70;;
51030;SDS011;37058;41.442;23.240;2022-10-16T06:16:06;5.33;;;2.63;;
51030;SDS011;37058;41.442;23.240;2022-10-16T06:18:33;6.47;;;3.33;;
51030;SDS011;37058;41.442;23.240;2022-10-16T06:20:59;4.93;;;3.20;;
51030;SDS011;37058;41.442;23.240;2022-10-16T06:23:31;4.30;;;2.73;;
51030;SDS011;37058;41.442;23.240;2022-10-16T06:26:03;7.80;;;3.03;;
51030;SDS011;37058;41.442;23.240;2022-10-16T06:28:34;5.10;;;3.00;;
51030;SDS011;37058;41.442;23.240;2022-10-16T06:31:00;4.97;;;3.33;;
51030;SDS011;37058;41.442;23.240;2022-10-16T06:33:28;3.53;;;2.60;;
51030;SDS011;37058;41.442;23.240;2022-10-16T06:36:01;5.57;;;2.97;;
51030;SDS011;37058;41.442;23.240;2022-10-16T06:38:36;5.32;;;3.70;;
51030;SDS011;37058;41.442;23.240;2022-10-16T06:41:03;4.03;;;2.58;;
51030;SDS011;37058;41.442;23.240;2022-10-16T06:43:30;4.68;;;3.00;;
51030;SDS011;37058;41.442;23.240;2022-10-16T06:45:57;4.60;;;3.05;;
51030;SDS011;37058;41.442;23.240;2022-10-16T06:48:25;4.35;;;3.25;;
51030;SDS011;37058;41.442;23.240;2022-10-16T06:51:11;3.85;;;2.60;;
51030;SDS011;37058;41.442;23.240;2022-10-16T06:53:40;3.17;;;2.40;;
51030;SDS011;37058;41.442;23.240;2022-10-16T06:56:18;5.07;;;2.90;;
51030;SDS011;37058;41.442;23.240;2022-10-16T06:58:49;4.45;;;2.60;;
51030;SDS011;37058;41.442;23.240;2022-10-16T07:01:17;3.97;;;2.83;;
51030;SDS011;37058;41.442;23.240;2022-10-16T07:03:45;3.47;;;2.40;;
51030;SDS011;37058;41.442;23.240;2022-10-16T07:06:17;7.72;;;4.95;;
51030;SDS011;37058;41.442;23.240;2022-10-16T07:08:45;25.75;;;13.65;;
51030;SDS011;37058;41.442;23.240;2022-10-16T07:11:13;9.45;;;6.30;;
51030;SDS011;37058;41.442;23.240;2022-10-16T07:13:42;4.30;;;2.92;;
51030;SDS011;37058;41.442;23.240;2022-10-16T07:16:13;4.53;;;3.45;;
51030;SDS011;37058;41.442;23.240;2022-10-16T07:18:42;6.80;;;3.67;;
51030;SDS011;37058;41.442;23.240;2022-10-16T07:21:11;6.97;;;5.13;;
51030;SDS011;37058;41.442;23.240;2022-10-16T07:23:40;4.78;;;3.17;;
51030;SDS011;37058;41.442;23.240;2022-10-16T07:26:08;5.13;;;3.42;;
51030;SDS011;37058;41.442;23.240;2022-10-16T07:28:35;4.18;;;3.40;;
51030;SDS011;37058;41.442;23.240;2022-10-16T07:31:02;15.38;;;9.63;;
51030;SDS011;37058;41.442;23.240;2022-10-16T07:33:36;8.95;;;7.00;;
51030;SDS011;37058;41.442;23.240;2022-10-16T07:36:03;4.78;;;3.00;;
51030;SDS011;37058;41.442;23.240;2022-10-16T07:38:29;4.15;;;3.10;;
51030;SDS011;37058;41.442;23.240;2022-10-16T07:41:03;3.90;;;2.72;;
51030;SDS011;37058;41.442;23.240;2022-10-16T07:43:32;3.55;;;2.60;;
51030;SDS011;37058;41.442;23.240;2022-10-16T07:45:58;4.63;;;2.85;;
51030;SDS011;37058;41.442;23.240;2022-10-16T07:48:32;4.32;;;3.22;;
51030;SDS011;37058;41.442;23.240;2022-10-16T07:51:00;5.90;;;3.40;;
51030;SDS011;37058;41.442;23.240;2022-10-16T07:53:29;6.10;;;3.78;;
51030;SDS011;37058;41.442;23.240;2022-10-16T07:55:59;6.95;;;3.72;;
51030;SDS011;37058;41.442;23.240;2022-10-16T07:58:28;5.43;;;3.10;;
51030;SDS011;37058;41.442;23.240;2022-10-16T08:00:55;6.13;;;3.80;;
51030;SDS011;37058;41.442;23.240;2022-10-16T08:03:22;6.38;;;3.60;;
51030;SDS011;37058;41.442;23.240;2022-10-16T08:05:49;4.60;;;3.15;;
51030;SDS011;37058;41.442;23.240;2022-10-16T08:08:16;5.82;;;3.38;;
51030;SDS011;37058;41.442;23.240;2022-10-16T08:10:43;8.90;;;3.22;;
51030;SDS011;37058;41.442;23.240;2022-10-16T08:13:10;5.82;;;2.80;;
51030;SDS011;37058;41.442;23.240;2022-10-16T08:15:36;7.68;;;4.78;;
51030;SDS011;37058;41.442;23.240;2022-10-16T08:18:03;9.13;;;3.67;;
51030;SDS011;37058;41.442;23.240;2022-10-16T08:20:31;5.03;;;3.28;;
51030;SDS011;37058;41.442;23.240;2022-10-16T08:22:58;5.35;;;3.92;;
51030;SDS011;37058;41.442;23.240;2022-10-16T08:25:25;7.43;;;3.92;;
51030;SDS011;37058;41.442;23.240;2022-10-16T08:27:51;7.28;;;3.53;;
51030;SDS011;37058;41.442;23.240;2022-10-16T08:30:18;6.10;;;3.35;;
51030;SDS011;37058;41.442;23.240;2022-10-16T08:32:45;6.32;;;4.55;;
51030;SDS011;37058;41.442;23.240;2022-10-16T08:35:12;7.07;;;4.50;;
51030;SDS011;37058;41.442;23.240;2022-10-16T08:37:39;6.00;;;3.90;;
51030;SDS011;37058;41.442;23.240;2022-10-16T08:40:06;6.13;;;3.80;;
51030;SDS011;37058;41.442;23.240;2022-10-16T08:48:48;26.15;;;4.65;;
51030;SDS011;37058;41.442;23.240;2022-10-16T08:51:28;8.25;;;4.15;;
51030;SDS011;37058;41.442;23.240;2022-10-16T08:53:58;7.82;;;3.88;;
51030;SDS011;37058;41.442;23.240;2022-10-16T08:56:39;7.35;;;3.35;;
51030;SDS011;37058;41.442;23.240;2022-10-16T08:59:06;7.32;;;4.05;;
51030;SDS011;37058;41.442;23.240;2022-10-16T09:01:38;5.63;;;3.30;;
51030;SDS011;37058;41.442;23.240;2022-10-16T09:07:04;7.68;;;4.63;;
51030;SDS011;37058;41.442;23.240;2022-10-16T09:10:13;9.48;;;5.38;;
51030;SDS011;37058;41.442;23.240;2022-10-16T09:15:59;8.30;;;4.85;;
51030;SDS011;37058;41.442;23.240;2022-10-16T09:18:53;7.30;;;4.23;;
51030;SDS011;37058;41.442;23.240;2022-10-16T09:26:44;9.05;;;6.38;;
51030;SDS011;37058;41.442;23.240;2022-10-16T09:29:15;12.40;;;7.07;;
51030;SDS011;37058;41.442;23.240;2022-10-16T09:31:47;10.38;;;8.23;;
51030;SDS011;37058;41.442;23.240;2022-10-16T09:37:08;6.60;;;4.35;;
51030;SDS011;37058;41.442;23.240;2022-10-16T09:39:45;5.78;;;3.88;;
51030;SDS011;37058;41.442;23.240;2022-10-16T09:42:18;6.38;;;3.20;;
51030;SDS011;37058;41.442;23.240;2022-10-16T09:44:49;5.32;;;2.88;;
51030;SDS011;37058;41.442;23.240;2022-10-16T09:47:26;13.30;;;10.50;;
51030;SDS011;37058;41.442;23.240;2022-10-16T09:49:59;7.38;;;5.90;;
51030;SDS011;37058;41.442;23.240;2022-10-16T09:52:44;7.72;;;4.40;;
51030;SDS011;37058;41.442;23.240;2022-10-16T09:55:15;9.35;;;4.88;;
51030;SDS011;37058;41.442;23.240;2022-10-16T09:57:53;6.28;;;3.47;;
51030;SDS011;37058;41.442;23.240;2022-10-16T10:00:20;6.13;;;3.50;;
51030;SDS011;37058;41.442;23.240;2022-10-16T10:02:48;7.70;;;4.20;;
51030;SDS011;37058;41.442;23.240;2022-10-16T10:05:25;10.00;;;4.38;;
51030;SDS011;37058;41.442;23.240;2022-10-16T10:07:57;5.97;;;3.47;;
51030;SDS011;37058;41.442;23.240;2022-10-16T10:10:30;7.45;;;4.13;;
51030;SDS011;37058;41.442;23.240;2022-10-16T10:13:14;5.97;;;3.72;;
51030;SDS011;37058;41.442;23.240;2022-10-16T10:15:46;5.70;;;4.00;;
51030;SDS011;37058;41.442;23.240;2022-10-16T10:18:20;6.15;;;3.90;;
51030;SDS011;37058;41.442;23.240;2022-10-16T10:20:58;5.57;;;3.22;;
51030;SDS011;37058;41.442;23.240;2022-10-16T10:23:26;6.78;;;3.92;;
51030;SDS011;37058;41.442;23.240;2022-10-16T10:26:15;7.57;;;3.45;;
51030;SDS011;37058;41.442;23.240;2022-10-16T10:31:59;4.32;;;3.22;;
51030;SDS011;37058;41.442;23.240;2022-10-16T10:35:16;5.75;;;3.30;;
51030;SDS011;37058;41.442;23.240;2022-10-16T10:46:45;5.97;;;3.20;;
51030;SDS011;37058;41.442;23.240;2022-10-16T11:01:15;8.93;;;3.15;;
51030;SDS011;37058;41.442;23.240;2022-10-16T11:04:08;5.25;;;2.78;;
51030;SDS011;37058;41.442;23.240;2022-10-16T11:06:59;5.38;;;2.72;;
51030;SDS011;37058;41.442;23.240;2022-10-16T11:12:09;5.47;;;2.97;;
51030;SDS011;37058;41.442;23.240;2022-10-16T11:17:45;4.15;;;2.55;;
51030;SDS011;37058;41.442;23.240;2022-10-16T11:20:25;4.95;;;2.70;;
51030;SDS011;37058;41.442;23.240;2022-10-16T11:23:02;4.85;;;3.05;;
51030;SDS011;37058;41.442;23.240;2022-10-16T11:26:04;5.60;;;3.50;;
51030;SDS011;37058;41.442;23.240;2022-10-16T11:28:56;6.85;;;3.92;;
51030;SDS011;37058;41.442;23.240;2022-10-16T11:39:39;3.80;;;2.45;;
51030;SDS011;37058;41.442;23.240;2022-10-16T11:42:16;3.97;;;2.75;;
51030;SDS011;37058;41.442;23.240;2022-10-16T11:55:41;4.88;;;2.50;;
51030;SDS011;37058;41.442;23.240;2022-10-16T11:58:20;4.90;;;2.92;;
51030;SDS011;37058;41.442;23.240;2022-10-16T12:07:21;3.70;;;2.75;;
51030;SDS011;37058;41.442;23.240;2022-10-16T12:09:55;5.15;;;2.55;;
51030;SDS011;37058;41.442;23.240;2022-10-16T12:15:00;4.78;;;2.60;;
51030;SDS011;37058;41.442;23.240;2022-10-16T12:17:54;4.32;;;2.22;;
51030;SDS011;37058;41.442;23.240;2022-10-16T12:20:23;5.18;;;2.85;;
51030;SDS011;37058;41.442;23.240;2022-10-16T12:23:02;4.47;;;2.47;;
51030;SDS011;37058;41.442;23.240;2022-10-16T12:25:31;4.72;;;2.72;;
51030;SDS011;37058;41.442;23.240;2022-10-16T12:30:40;4.30;;;2.67;;
51030;SDS011;37058;41.442;23.240;2022-10-16T12:35:58;3.50;;;2.38;;
51030;SDS011;37058;41.442;23.240;2022-10-16T12:41:06;4.38;;;2.28;;
51030;SDS011;37058;41.442;23.240;2022-10-16T12:48:36;4.65;;;2.85;;
51030;SDS011;37058;41.442;23.240;2022-10-16T12:54:04;5.45;;;2.50;;
51030;SDS011;37058;41.442;23.240;2022-10-16T13:15:10;4.15;;;2.28;;
51030;SDS011;37058;41.442;23.240;2022-10-16T13:18:02;3.40;;;2.13;;
51030;SDS011;37058;41.442;23.240;2022-10-16T13:24:07;8.85;;;4.95;;
51030;SDS011;37058;41.442;23.240;2022-10-16T13:29:52;5.53;;;3.35;;
51030;SDS011;37058;41.442;23.240;2022-10-16T13:32:26;4.32;;;2.65;;
51030;SDS011;37058;41.442;23.240;2022-10-16T13:34:53;5.32;;;2.85;;
51030;SDS011;37058;41.442;23.240;2022-10-16T13:37:21;4.20;;;2.45;;
51030;SDS011;37058;41.442;23.240;2022-10-16T13:39:49;3.90;;;3.00;;
51030;SDS011;37058;41.442;23.240;2022-10-16T13:42:25;6.32;;;2.75;;
51030;SDS011;37058;41.442;23.240;2022-10-16T13:44:53;3.72;;;2.17;;
51030;SDS011;37058;41.442;23.240;2022-10-16T13:47:22;4.38;;;2.40;;
51030;SDS011;37058;41.442;23.240;2022-10-16T13:50:04;5.13;;;3.00;;
51030;SDS011;37058;41.442;23.240;2022-10-16T13:52:42;7.63;;;3.13;;
51030;SDS011;37058;41.442;23.240;2022-10-16T13:55:13;5.85;;;2.53;;
51030;SDS011;37058;41.442;23.240;2022-10-16T13:57:41;5.05;;;3.13;;
51030;SDS011;37058;41.442;23.240;2022-10-16T14:00:21;4.68;;;2.60;;
51030;SDS011;37058;41.442;23.240;2022-10-16T14:02:52;2.58;;;1.77;;
51030;SDS011;37058;41.442;23.240;2022-10-16T14:05:27;4.43;;;1.95;;
51030;SDS011;37058;41.442;23.240;2022-10-16T14:07:53;3.78;;;1.95;;
51030;SDS011;37058;41.442;23.240;2022-10-16T14:10:22;3.40;;;2.35;;
51030;SDS011;37058;41.442;23.240;2022-10-16T14:12:57;3.00;;;1.88;;
51030;SDS011;37058;41.442;23.240;2022-10-16T14:15:34;3.25;;;1.95;;
51030;SDS011;37058;41.442;23.240;2022-10-16T14:18:01;3.70;;;2.13;;
51030;SDS011;37058;41.442;23.240;2022-10-16T14:20:32;4.72;;;1.98;;
51030;SDS011;37058;41.442;23.240;2022-10-16T14:25:31;3.22;;;1.90;;
51030;SDS011;37058;41.442;23.240;2022-10-16T14:30:53;2.67;;;1.92;;
51030;SDS011;37058;41.442;23.240;2022-10-16T14:33:23;3.53;;;2.17;;
51030;SDS011;37058;41.442;23.240;2022-10-16T14:38:49;2.75;;;1.63;;
51030;SDS011;37058;41.442;23.240;2022-10-16T14:41:27;4.07;;;2.08;;
51030;SDS011;37058;41.442;23.240;2022-10-16T14:44:04;3.80;;;2.13;;
51030;SDS011;37058;41.442;23.240;2022-10-16T14:46:32;3.17;;;1.77;;
51030;SDS011;37058;41.442;23.240;2022-10-16T14:49:13;4.47;;;2.58;;
51030;SDS011;37058;41.442;23.240;2022-10-16T14:51:44;28.45;;;4.82;;
51030;SDS011;37058;41.442;23.240;2022-10-16T14:54:15;8.02;;;4.07;;
51030;SDS011;37058;41.442;23.240;2022-10-16T15:02:27;8.82;;;3.60;;
51030;SDS011;37058;41.442;23.240;2022-10-16T15:04:56;6.53;;;3.78;;
51030;SDS011;37058;41.442;23.240;2022-10-16T15:07:26;9.32;;;5.47;;
51030;SDS011;37058;41.442;23.240;2022-10-16T15:09:52;4.53;;;2.92;;
51030;SDS011;37058;41.442;23.240;2022-10-16T15:12:18;8.10;;;3.95;;
51030;SDS011;37058;41.442;23.240;2022-10-16T15:14:44;7.00;;;3.65;;
51030;SDS011;37058;41.442;23.240;2022-10-16T15:17:10;11.63;;;4.43;;
51030;SDS011;37058;41.442;23.240;2022-10-16T15:19:36;6.57;;;4.00;;
51030;SDS011;37058;41.442;23.240;2022-10-16T15:22:03;7.32;;;3.28;;
51030;SDS011;37058;41.442;23.240;2022-10-16T15:24:29;7.05;;;3.08;;
51030;SDS011;37058;41.442;23.240;2022-10-16T15:26:55;6.80;;;3.35;;
51030;SDS011;37058;41.442;23.240;2022-10-16T15:29:20;5.57;;;3.67;;
51030;SDS011;37058;41.442;23.240;2022-10-16T15:31:46;5.25;;;3.42;;
51030;SDS011;37058;41.442;23.240;2022-10-16T15:34:12;9.70;;;3.60;;
51030;SDS011;37058;41.442;23.240;2022-10-16T15:36:38;4.32;;;3.20;;
51030;SDS011;37058;41.442;23.240;2022-10-16T15:39:06;4.60;;;2.92;;
51030;SDS011;37058;41.442;23.240;2022-10-16T15:41:40;5.68;;;3.20;;
51030;SDS011;37058;41.442;23.240;2022-10-16T15:44:07;9.73;;;4.28;;
51030;SDS011;37058;41.442;23.240;2022-10-16T15:46:33;8.82;;;3.75;;
51030;SDS011;37058;41.442;23.240;2022-10-16T15:48:59;5.47;;;3.25;;
51030;SDS011;37058;41.442;23.240;2022-10-16T15:51:26;4.47;;;2.83;;
51030;SDS011;37058;41.442;23.240;2022-10-16T15:53:55;7.03;;;3.00;;
51030;SDS011;37058;41.442;23.240;2022-10-16T15:56:22;8.18;;;4.95;;
51030;SDS011;37058;41.442;23.240;2022-10-16T15:58:50;8.85;;;4.45;;
51030;SDS011;37058;41.442;23.240;2022-10-16T16:01:17;7.68;;;3.55;;
51030;SDS011;37058;41.442;23.240;2022-10-16T16:03:43;6.05;;;3.78;;
51030;SDS011;37058;41.442;23.240;2022-10-16T16:06:10;5.38;;;3.80;;
51030;SDS011;37058;41.442;23.240;2022-10-16T16:08:38;11.63;;;6.00;;
51030;SDS011;37058;41.442;23.240;2022-10-16T16:11:05;8.73;;;4.47;;
51030;SDS011;37058;41.442;23.240;2022-10-16T16:13:34;6.65;;;4.70;;
51030;SDS011;37058;41.442;23.240;2022-10-16T16:16:05;6.07;;;3.42;;
51030;SDS011;37058;41.442;23.240;2022-10-16T16:18:36;8.90;;;4.03;;
51030;SDS011;37058;41.442;23.240;2022-10-16T16:21:03;6.22;;;4.45;;
51030;SDS011;37058;41.442;23.240;2022-10-16T16:23:30;8.90;;;4.75;;
51030;SDS011;37058;41.442;23.240;2022-10-16T16:26:07;8.05;;;5.95;;
51030;SDS011;37058;41.442;23.240;2022-10-16T16:28:40;9.43;;;5.50;;
51030;SDS011;37058;41.442;23.240;2022-10-16T16:31:08;9.82;;;5.15;;
51030;SDS011;37058;41.442;23.240;2022-10-16T16:33:34;7.18;;;4.35;;
51030;SDS011;37058;41.442;23.240;2022-10-16T16:36:00;10.95;;;7.40;;
51030;SDS011;37058;41.442;23.240;2022-10-16T16:38:31;10.77;;;6.88;;
51030;SDS011;37058;41.442;23.240;2022-10-16T16:40:58;9.18;;;6.22;;
51030;SDS011;37058;41.442;23.240;2022-10-16T16:43:25;12.57;;;6.97;;
51030;SDS011;37058;41.442;23.240;2022-10-16T16:45:52;11.15;;;6.95;;
51030;SDS011;37058;41.442;23.240;2022-10-16T16:48:20;17.75;;;8.48;;
51030;SDS011;37058;41.442;23.240;2022-10-16T16:50:46;22.23;;;11.95;;
51030;SDS011;37058;41.442;23.240;2022-10-16T16:53:12;24.83;;;11.95;;
51030;SDS011;37058;41.442;23.240;2022-10-16T16:55:38;20.80;;;10.80;;
51030;SDS011;37058;41.442;23.240;2022-10-16T16:58:04;17.30;;;8.60;;
51030;SDS011;37058;41.442;23.240;2022-10-16T17:00:30;18.83;;;10.07;;
51030;SDS011;37058;41.442;23.240;2022-10-16T17:02:56;15.68;;;10.02;;
51030;SDS011;37058;41.442;23.240;2022-10-16T17:05:22;14.43;;;8.60;;
51030;SDS011;37058;41.442;23.240;2022-10-16T17:07:48;12.32;;;9.30;;
51030;SDS011;37058;41.442;23.240;2022-10-16T17:10:14;11.52;;;7.03;;
51030;SDS011;37058;41.442;23.240;2022-10-16T17:12:40;12.32;;;8.40;;
51030;SDS011;37058;41.442;23.240;2022-10-16T17:15:06;13.18;;;7.75;;
51030;SDS011;37058;41.442;23.240;2022-10-16T17:17:33;16.35;;;9.60;;
51030;SDS011;37058;41.442;23.240;2022-10-16T17:19:58;16.60;;;9.27;;
51030;SDS011;37058;41.442;23.240;2022-10-16T17:22:24;17.70;;;9.40;;
51030;SDS011;37058;41.442;23.240;2022-10-16T17:24:50;15.23;;;10.02;;
51030;SDS011;37058;41.442;23.240;2022-10-16T17:27:18;17.70;;;9.48;;